sensor_id;sensor_type;location;lat;lon;timestamp;P1;durP1;ratioP1;P2;durP2;ratioP2
28086;SDS011;15392;48.912;8.380;2023-03-08T00:01:51;2.58;;;2.47;;
28086;SDS011;15392;48.912;8.380;2023-03-08T00:04:17;2.90;;;2.80;;
28086;SDS011;15392;48.912;8.380;2023-03-08T00:06:42;2.67;;;2.58;;
28086;SDS011;15392;48.912;8.380;2023-03-08T00:09:08;2.70;;;2.60;;
28086;SDS011;15392;48.912;8.380;2023-03-08T00:11:34;3.38;;;3.17;;
28086;SDS011;15392;48.912;8.380;2023-03-08T00:14:00;3.00;;;2.90;;
28086;SDS011;15392;48.912;8.380;2023-03-08T00:16:27;2.80;;;2.70;;
28086;SDS011;15392;48.912;8.380;2023-03-08T00:18:53;2.45;;;2.35;;
28086;SDS011;15392;48.912;8.380;2023-03-08T00:21:19;3.00;;;2.90;;
28086;SDS011;15392;48.912;8.380;2023-03-08T00:23:45;2.70;;;2.60;;
28086;SDS011;15392;48.912;8.380;2023-03-08T00:26:11;2.80;;;2.70;;
28086;SDS011;15392;48.912;8.380;2023-03-08T00:28:38;2.80;;;2.70;;
28086;SDS011;15392;48.912;8.380;2023-03-08T00:31:09;2.42;;;2.33;;
28086;SDS011;15392;48.912;8.380;2023-03-08T00:33:36;2.53;;;2.42;;
28086;SDS011;15392;48.912;8.380;2023-03-08T00:36:04;3.00;;;2.90;;
28086;SDS011;15392;48.912;8.380;2023-03-08T00:38:34;2.75;;;2.65;;
28086;SDS011;15392;48.912;8.380;2023-03-08T00:41:00;2.97;;;2.70;;
28086;SDS011;15392;48.912;8.380;2023-03-08T00:43:27;2.72;;;2.63;;
28086;SDS011;15392;48.912;8.380;2023-03-08T00:45:54;2.65;;;2.55;;
28086;SDS011;15392;48.912;8.380;2023-03-08T00:48:20;2.50;;;2.40;;
28086;SDS011;15392;48.912;8.380;2023-03-08T00:50:46;2.90;;;2.80;;
28086;SDS011;15392;48.912;8.380;2023-03-08T00:53:12;2.75;;;2.65;;
28086;SDS011;15392;48.912;8.380;2023-03-08T00:55:38;2.63;;;2.53;;
28086;SDS011;15392;48.912;8.380;2023-03-08T00:58:04;2.55;;;2.45;;
28086;SDS011;15392;48.912;8.380;2023-03-08T01:00:30;2.72;;;2.63;;
28086;SDS011;15392;48.912;8.380;2023-03-08T01:02:56;2.70;;;2.60;;
28086;SDS011;15392;48.912;8.380;2023-03-08T01:05:22;2.88;;;2.78;;
28086;SDS011;15392;48.912;8.380;2023-03-08T01:07:48;2.78;;;2.67;;
28086;SDS011;15392;48.912;8.380;2023-03-08T01:10:14;2.50;;;2.40;;
28086;SDS011;15392;48.912;8.380;2023-03-08T01:12:40;2.30;;;2.20;;
28086;SDS011;15392;48.912;8.380;2023-03-08T01:15:06;2.72;;;2.63;;
28086;SDS011;15392;48.912;8.380;2023-03-08T01:17:33;2.53;;;2.42;;
28086;SDS011;15392;48.912;8.380;2023-03-08T01:19:59;2.53;;;2.42;;
28086;SDS011;15392;48.912;8.380;2023-03-08T01:22:24;2.40;;;2.30;;
28086;SDS011;15392;48.912;8.380;2023-03-08T01:24:50;2.40;;;2.30;;
28086;SDS011;15392;48.912;8.380;2023-03-08T01:27:16;2.55;;;2.45;;
28086;SDS011;15392;48.912;8.380;2023-03-08T01:29:42;2.60;;;2.50;;
28086;SDS011;15392;48.912;8.380;2023-03-08T01:32:09;2.58;;;2.47;;
28086;SDS011;15392;48.912;8.380;2023-03-08T01:34:38;2.53;;;2.42;;
28086;SDS011;15392;48.912;8.380;2023-03-08T01:37:04;2.60;;;2.50;;
28086;SDS011;15392;48.912;8.380;2023-03-08T01:39:30;2.15;;;2.05;;
28086;SDS011;15392;48.912;8.380;2023-03-08T01:41:56;2.13;;;2.03;;
28086;SDS011;15392;48.912;8.380;2023-03-08T01:44:22;2.30;;;2.20;;
28086;SDS011;15392;48.912;8.380;2023-03-08T01:46:48;2.05;;;1.95;;
28086;SDS011;15392;48.912;8.380;2023-03-08T01:49:15;2.38;;;2.28;;
28086;SDS011;15392;48.912;8.380;2023-03-08T01:54:48;2.47;;;2.38;;
28086;SDS011;15392;48.912;8.380;2023-03-08T01:59:58;2.37;;;2.27;;
28086;SDS011;15392;48.912;8.380;2023-03-08T02:02:38;2.30;;;2.20;;
28086;SDS011;15392;48.912;8.380;2023-03-08T02:05:08;2.33;;;2.22;;
28086;SDS011;15392;48.912;8.380;2023-03-08T02:07:35;2.35;;;2.25;;
28086;SDS011;15392;48.912;8.380;2023-03-08T02:10:01;3.03;;;2.00;;
28086;SDS011;15392;48.912;8.380;2023-03-08T02:12:30;2.53;;;2.42;;
28086;SDS011;15392;48.912;8.380;2023-03-08T02:14:57;2.40;;;2.30;;
28086;SDS011;15392;48.912;8.380;2023-03-08T02:17:22;2.25;;;2.15;;
28086;SDS011;15392;48.912;8.380;2023-03-08T02:19:55;2.50;;;2.40;;
28086;SDS011;15392;48.912;8.380;2023-03-08T02:22:30;2.28;;;2.17;;
28086;SDS011;15392;48.912;8.380;2023-03-08T02:25:02;2.50;;;2.40;;
28086;SDS011;15392;48.912;8.380;2023-03-08T02:27:38;2.55;;;2.45;;
28086;SDS011;15392;48.912;8.380;2023-03-08T02:30:04;2.25;;;2.15;;
28086;SDS011;15392;48.912;8.380;2023-03-08T02:32:30;2.45;;;2.35;;
28086;SDS011;15392;48.912;8.380;2023-03-08T02:34:56;2.33;;;2.22;;
28086;SDS011;15392;48.912;8.380;2023-03-08T02:37:22;2.28;;;2.17;;
28086;SDS011;15392;48.912;8.380;2023-03-08T02:39:48;2.17;;;2.08;;
28086;SDS011;15392;48.912;8.380;2023-03-08T02:42:13;2.35;;;2.25;;
28086;SDS011;15392;48.912;8.380;2023-03-08T02:44:39;2.22;;;2.13;;
28086;SDS011;15392;48.912;8.380;2023-03-08T02:47:05;1.98;;;1.88;;
28086;SDS011;15392;48.912;8.380;2023-03-08T02:49:31;2.05;;;1.95;;
28086;SDS011;15392;48.912;8.380;2023-03-08T02:51:57;2.15;;;2.05;;
28086;SDS011;15392;48.912;8.380;2023-03-08T02:54:23;1.90;;;1.90;;
28086;SDS011;15392;48.912;8.380;2023-03-08T02:56:49;1.75;;;1.65;;
28086;SDS011;15392;48.912;8.380;2023-03-08T02:59:15;2.05;;;1.95;;
28086;SDS011;15392;48.912;8.380;2023-03-08T03:01:40;2.08;;;1.98;;
28086;SDS011;15392;48.912;8.380;2023-03-08T03:04:06;2.10;;;2.00;;
28086;SDS011;15392;48.912;8.380;2023-03-08T03:06:32;1.95;;;1.85;;
28086;SDS011;15392;48.912;8.380;2023-03-08T03:08:57;2.05;;;1.95;;
28086;SDS011;15392;48.912;8.380;2023-03-08T03:11:23;2.00;;;1.90;;
28086;SDS011;15392;48.912;8.380;2023-03-08T03:13:53;1.90;;;1.80;;
28086;SDS011;15392;48.912;8.380;2023-03-08T03:16:21;1.90;;;1.80;;
28086;SDS011;15392;48.912;8.380;2023-03-08T03:18:48;1.73;;;1.70;;
28086;SDS011;15392;48.912;8.380;2023-03-08T03:21:14;2.03;;;1.92;;
28086;SDS011;15392;48.912;8.380;2023-03-08T03:23:40;1.85;;;1.85;;
28086;SDS011;15392;48.912;8.380;2023-03-08T03:26:07;2.00;;;1.90;;
28086;SDS011;15392;48.912;8.380;2023-03-08T03:28:36;2.10;;;2.00;;
28086;SDS011;15392;48.912;8.380;2023-03-08T03:31:06;2.20;;;2.10;;
28086;SDS011;15392;48.912;8.380;2023-03-08T03:33:40;2.22;;;2.13;;
28086;SDS011;15392;48.912;8.380;2023-03-08T03:36:07;2.10;;;2.00;;
28086;SDS011;15392;48.912;8.380;2023-03-08T03:38:37;2.10;;;2.00;;
28086;SDS011;15392;48.912;8.380;2023-03-08T03:41:05;2.20;;;2.10;;
28086;SDS011;15392;48.912;8.380;2023-03-08T03:43:33;1.48;;;1.48;;
28086;SDS011;15392;48.912;8.380;2023-03-08T03:46:01;1.85;;;1.75;;
28086;SDS011;15392;48.912;8.380;2023-03-08T03:48:30;1.75;;;1.65;;
28086;SDS011;15392;48.912;8.380;2023-03-08T03:50:59;2.00;;;1.90;;
28086;SDS011;15392;48.912;8.380;2023-03-08T03:53:28;1.50;;;1.50;;
28086;SDS011;15392;48.912;8.380;2023-03-08T03:56:00;1.90;;;1.80;;
28086;SDS011;15392;48.912;8.380;2023-03-08T03:58:47;2.00;;;1.90;;
28086;SDS011;15392;48.912;8.380;2023-03-08T04:01:15;1.85;;;1.75;;
28086;SDS011;15392;48.912;8.380;2023-03-08T04:03:47;1.95;;;1.85;;
28086;SDS011;15392;48.912;8.380;2023-03-08T04:06:14;2.33;;;2.22;;
28086;SDS011;15392;48.912;8.380;2023-03-08T04:08:44;1.92;;;1.83;;
28086;SDS011;15392;48.912;8.380;2023-03-08T04:11:11;2.13;;;2.03;;
28086;SDS011;15392;48.912;8.380;2023-03-08T04:13:42;1.77;;;1.77;;
28086;SDS011;15392;48.912;8.380;2023-03-08T04:18:35;2.00;;;1.90;;
28086;SDS011;15392;48.912;8.380;2023-03-08T04:21:01;1.40;;;1.40;;
28086;SDS011;15392;48.912;8.380;2023-03-08T04:23:27;1.30;;;1.30;;
28086;SDS011;15392;48.912;8.380;2023-03-08T04:25:53;1.55;;;1.55;;
28086;SDS011;15392;48.912;8.380;2023-03-08T04:28:19;1.40;;;1.40;;
28086;SDS011;15392;48.912;8.380;2023-03-08T04:30:44;1.40;;;1.40;;
28086;SDS011;15392;48.912;8.380;2023-03-08T04:33:10;1.23;;;1.23;;
28086;SDS011;15392;48.912;8.380;2023-03-08T04:35:36;1.08;;;1.08;;
28086;SDS011;15392;48.912;8.380;2023-03-08T04:38:02;1.35;;;1.35;;
28086;SDS011;15392;48.912;8.380;2023-03-08T04:40:28;1.08;;;1.08;;
28086;SDS011;15392;48.912;8.380;2023-03-08T04:42:54;1.52;;;1.25;;
28086;SDS011;15392;48.912;8.380;2023-03-08T04:45:20;1.23;;;1.23;;
28086;SDS011;15392;48.912;8.380;2023-03-08T04:47:46;1.40;;;1.40;;
28086;SDS011;15392;48.912;8.380;2023-03-08T04:50:12;1.20;;;1.20;;
28086;SDS011;15392;48.912;8.380;2023-03-08T04:52:38;1.20;;;1.20;;
28086;SDS011;15392;48.912;8.380;2023-03-08T04:55:04;1.38;;;1.38;;
28086;SDS011;15392;48.912;8.380;2023-03-08T04:57:31;1.65;;;1.58;;
28086;SDS011;15392;48.912;8.380;2023-03-08T04:59:56;1.30;;;1.30;;
28086;SDS011;15392;48.912;8.380;2023-03-08T05:02:22;1.60;;;1.60;;
28086;SDS011;15392;48.912;8.380;2023-03-08T05:04:48;1.45;;;1.35;;
28086;SDS011;15392;48.912;8.380;2023-03-08T05:07:14;1.60;;;1.60;;
28086;SDS011;15392;48.912;8.380;2023-03-08T05:09:42;1.70;;;1.60;;
28086;SDS011;15392;48.912;8.380;2023-03-08T05:12:08;1.50;;;1.40;;
28086;SDS011;15392;48.912;8.380;2023-03-08T05:14:34;1.70;;;1.67;;
28086;SDS011;15392;48.912;8.380;2023-03-08T05:16:59;1.75;;;1.65;;
28086;SDS011;15392;48.912;8.380;2023-03-08T05:19:25;1.60;;;1.58;;
28086;SDS011;15392;48.912;8.380;2023-03-08T05:21:51;1.67;;;1.67;;
28086;SDS011;15392;48.912;8.380;2023-03-08T05:24:17;1.83;;;1.80;;
28086;SDS011;15392;48.912;8.380;2023-03-08T05:26:42;1.70;;;1.70;;
28086;SDS011;15392;48.912;8.380;2023-03-08T05:29:08;1.80;;;1.70;;
28086;SDS011;15392;48.912;8.380;2023-03-08T05:31:34;1.70;;;1.70;;
28086;SDS011;15392;48.912;8.380;2023-03-08T05:34:03;1.87;;;1.77;;
28086;SDS011;15392;48.912;8.380;2023-03-08T05:36:29;1.90;;;1.80;;
28086;SDS011;15392;48.912;8.380;2023-03-08T05:38:55;1.52;;;1.52;;
28086;SDS011;15392;48.912;8.380;2023-03-08T05:41:21;1.95;;;1.85;;
28086;SDS011;15392;48.912;8.380;2023-03-08T05:43:47;1.88;;;1.77;;
28086;SDS011;15392;48.912;8.380;2023-03-08T05:46:14;2.05;;;1.95;;
28086;SDS011;15392;48.912;8.380;2023-03-08T05:48:42;2.10;;;2.00;;
28086;SDS011;15392;48.912;8.380;2023-03-08T05:51:15;2.03;;;1.92;;
28086;SDS011;15392;48.912;8.380;2023-03-08T05:53:42;2.33;;;2.22;;
28086;SDS011;15392;48.912;8.380;2023-03-08T05:56:13;2.85;;;2.75;;
28086;SDS011;15392;48.912;8.380;2023-03-08T05:58:44;3.45;;;3.25;;
28086;SDS011;15392;48.912;8.380;2023-03-08T06:01:15;2.90;;;2.80;;
28086;SDS011;15392;48.912;8.380;2023-03-08T06:03:50;3.33;;;3.22;;
28086;SDS011;15392;48.912;8.380;2023-03-08T06:06:19;2.65;;;2.55;;
28086;SDS011;15392;48.912;8.380;2023-03-08T06:08:46;2.60;;;2.50;;
28086;SDS011;15392;48.912;8.380;2023-03-08T06:11:13;2.55;;;2.45;;
28086;SDS011;15392;48.912;8.380;2023-03-08T06:13:39;2.70;;;2.60;;
28086;SDS011;15392;48.912;8.380;2023-03-08T06:16:05;2.90;;;2.80;;
28086;SDS011;15392;48.912;8.380;2023-03-08T06:18:31;2.55;;;2.45;;
28086;SDS011;15392;48.912;8.380;2023-03-08T06:21:00;3.22;;;3.03;;
28086;SDS011;15392;48.912;8.380;2023-03-08T06:23:28;4.68;;;4.47;;
28086;SDS011;15392;48.912;8.380;2023-03-08T06:25:56;5.30;;;5.05;;
28086;SDS011;15392;48.912;8.380;2023-03-08T06:28:22;6.45;;;6.05;;
28086;SDS011;15392;48.912;8.380;2023-03-08T06:30:49;5.53;;;5.22;;
28086;SDS011;15392;48.912;8.380;2023-03-08T06:33:16;4.43;;;4.22;;
28086;SDS011;15392;48.912;8.380;2023-03-08T06:35:53;3.78;;;3.58;;
28086;SDS011;15392;48.912;8.380;2023-03-08T06:38:28;3.63;;;3.45;;
28086;SDS011;15392;48.912;8.380;2023-03-08T06:40:55;3.63;;;3.42;;
28086;SDS011;15392;48.912;8.380;2023-03-08T06:43:21;3.60;;;3.40;;
28086;SDS011;15392;48.912;8.380;2023-03-08T06:45:47;3.20;;;3.10;;
28086;SDS011;15392;48.912;8.380;2023-03-08T06:48:13;3.22;;;3.08;;
28086;SDS011;15392;48.912;8.380;2023-03-08T06:50:39;3.38;;;3.17;;
28086;SDS011;15392;48.912;8.380;2023-03-08T06:53:05;3.60;;;3.40;;
28086;SDS011;15392;48.912;8.380;2023-03-08T06:55:33;3.38;;;3.25;;
28086;SDS011;15392;48.912;8.380;2023-03-08T06:58:01;4.07;;;3.88;;
28086;SDS011;15392;48.912;8.380;2023-03-08T07:00:27;3.38;;;3.17;;
28086;SDS011;15392;48.912;8.380;2023-03-08T07:02:52;3.10;;;3.00;;
28086;SDS011;15392;48.912;8.380;2023-03-08T07:05:19;3.03;;;2.92;;
28086;SDS011;15392;48.912;8.380;2023-03-08T07:07:44;2.92;;;2.83;;
28086;SDS011;15392;48.912;8.380;2023-03-08T07:10:11;3.15;;;3.05;;
28086;SDS011;15392;48.912;8.380;2023-03-08T07:12:42;3.47;;;3.28;;
28086;SDS011;15392;48.912;8.380;2023-03-08T07:15:12;2.92;;;2.83;;
28086;SDS011;15392;48.912;8.380;2023-03-08T07:17:41;3.10;;;3.00;;
28086;SDS011;15392;48.912;8.380;2023-03-08T07:20:08;2.70;;;2.60;;
28086;SDS011;15392;48.912;8.380;2023-03-08T07:22:35;2.45;;;2.35;;
28086;SDS011;15392;48.912;8.380;2023-03-08T07:25:01;2.22;;;2.13;;
28086;SDS011;15392;48.912;8.380;2023-03-08T07:27:27;2.85;;;2.70;;
28086;SDS011;15392;48.912;8.380;2023-03-08T07:29:52;2.50;;;2.40;;
28086;SDS011;15392;48.912;8.380;2023-03-08T07:32:18;2.17;;;2.08;;
28086;SDS011;15392;48.912;8.380;2023-03-08T07:34:44;9.55;;;2.13;;
28086;SDS011;15392;48.912;8.380;2023-03-08T07:37:14;2.25;;;2.15;;
28086;SDS011;15392;48.912;8.380;2023-03-08T07:42:07;2.25;;;2.15;;
28086;SDS011;15392;48.912;8.380;2023-03-08T07:44:38;2.28;;;2.17;;
28086;SDS011;15392;48.912;8.380;2023-03-08T07:47:04;2.83;;;1.98;;
28086;SDS011;15392;48.912;8.380;2023-03-08T07:49:31;2.25;;;2.15;;
28086;SDS011;15392;48.912;8.380;2023-03-08T07:51:57;2.42;;;2.33;;
28086;SDS011;15392;48.912;8.380;2023-03-08T07:54:23;2.30;;;2.20;;
28086;SDS011;15392;48.912;8.380;2023-03-08T07:56:51;2.10;;;2.00;;
28086;SDS011;15392;48.912;8.380;2023-03-08T07:59:17;2.40;;;2.30;;
28086;SDS011;15392;48.912;8.380;2023-03-08T08:01:43;1.90;;;1.80;;
28086;SDS011;15392;48.912;8.380;2023-03-08T08:04:09;2.30;;;2.20;;
28086;SDS011;15392;48.912;8.380;2023-03-08T08:06:36;2.20;;;2.10;;
28086;SDS011;15392;48.912;8.380;2023-03-08T08:09:04;2.13;;;2.03;;
28086;SDS011;15392;48.912;8.380;2023-03-08T08:11:30;2.30;;;2.20;;
28086;SDS011;15392;48.912;8.380;2023-03-08T08:13:56;2.22;;;2.13;;
28086;SDS011;15392;48.912;8.380;2023-03-08T08:16:22;2.10;;;2.00;;
28086;SDS011;15392;48.912;8.380;2023-03-08T08:18:50;2.05;;;1.95;;
28086;SDS011;15392;48.912;8.380;2023-03-08T08:21:17;2.30;;;2.20;;
28086;SDS011;15392;48.912;8.380;2023-03-08T08:23:43;2.17;;;2.08;;
28086;SDS011;15392;48.912;8.380;2023-03-08T08:26:16;2.10;;;2.00;;
28086;SDS011;15392;48.912;8.380;2023-03-08T08:28:45;1.90;;;1.83;;
28086;SDS011;15392;48.912;8.380;2023-03-08T08:31:17;1.73;;;1.63;;
28086;SDS011;15392;48.912;8.380;2023-03-08T08:33:46;1.65;;;1.65;;
28086;SDS011;15392;48.912;8.380;2023-03-08T08:36:13;1.80;;;1.75;;
28086;SDS011;15392;48.912;8.380;2023-03-08T08:38:42;1.63;;;1.63;;
28086;SDS011;15392;48.912;8.380;2023-03-08T08:41:10;2.53;;;2.42;;
28086;SDS011;15392;48.912;8.380;2023-03-08T08:43:39;2.95;;;2.85;;
28086;SDS011;15392;48.912;8.380;2023-03-08T08:46:09;2.60;;;2.50;;
28086;SDS011;15392;48.912;8.380;2023-03-08T08:48:36;2.35;;;2.25;;
28086;SDS011;15392;48.912;8.380;2023-03-08T08:51:03;2.13;;;2.03;;
28086;SDS011;15392;48.912;8.380;2023-03-08T08:53:31;3.90;;;3.70;;
28086;SDS011;15392;48.912;8.380;2023-03-08T08:55:57;4.75;;;4.45;;
28086;SDS011;15392;48.912;8.380;2023-03-08T08:58:23;5.28;;;4.97;;
28086;SDS011;15392;48.912;8.380;2023-03-08T09:00:50;4.90;;;4.60;;
28086;SDS011;15392;48.912;8.380;2023-03-08T09:03:16;3.55;;;3.35;;
28086;SDS011;15392;48.912;8.380;2023-03-08T09:05:42;3.22;;;3.03;;
28086;SDS011;15392;48.912;8.380;2023-03-08T09:08:09;2.67;;;2.58;;
28086;SDS011;15392;48.912;8.380;2023-03-08T09:10:37;2.15;;;2.05;;
28086;SDS011;15392;48.912;8.380;2023-03-08T09:13:04;2.60;;;2.42;;
28086;SDS011;15392;48.912;8.380;2023-03-08T09:15:31;2.47;;;2.38;;
28086;SDS011;15392;48.912;8.380;2023-03-08T09:17:58;2.20;;;2.10;;
28086;SDS011;15392;48.912;8.380;2023-03-08T09:20:25;2.20;;;2.10;;
28086;SDS011;15392;48.912;8.380;2023-03-08T09:22:51;2.00;;;1.90;;
28086;SDS011;15392;48.912;8.380;2023-03-08T09:25:17;1.83;;;1.75;;
28086;SDS011;15392;48.912;8.380;2023-03-08T09:27:44;1.58;;;1.58;;
28086;SDS011;15392;48.912;8.380;2023-03-08T09:30:11;2.30;;;2.20;;
28086;SDS011;15392;48.912;8.380;2023-03-08T09:32:38;1.98;;;1.88;;
28086;SDS011;15392;48.912;8.380;2023-03-08T09:35:04;1.92;;;1.83;;
28086;SDS011;15392;48.912;8.380;2023-03-08T09:37:31;1.80;;;1.80;;
28086;SDS011;15392;48.912;8.380;2023-03-08T09:39:57;2.03;;;1.92;;
28086;SDS011;15392;48.912;8.380;2023-03-08T09:42:30;1.75;;;1.75;;
28086;SDS011;15392;48.912;8.380;2023-03-08T09:50:50;1.75;;;1.67;;
28086;SDS011;15392;48.912;8.380;2023-03-08T09:59:12;2.13;;;2.03;;
28086;SDS011;15392;48.912;8.380;2023-03-08T10:02:10;1.75;;;1.73;;
28086;SDS011;15392;48.912;8.380;2023-03-08T10:04:51;1.95;;;1.85;;
28086;SDS011;15392;48.912;8.380;2023-03-08T10:10:08;1.27;;;1.27;;
28086;SDS011;15392;48.912;8.380;2023-03-08T10:12:54;1.70;;;1.67;;
28086;SDS011;15392;48.912;8.380;2023-03-08T10:15:42;1.65;;;1.65;;
28086;SDS011;15392;48.912;8.380;2023-03-08T10:20:57;2.00;;;1.90;;
28086;SDS011;15392;48.912;8.380;2023-03-08T10:23:26;1.88;;;1.80;;
28086;SDS011;15392;48.912;8.380;2023-03-08T10:25:56;2.03;;;1.92;;
28086;SDS011;15392;48.912;8.380;2023-03-08T10:28:23;2.10;;;2.00;;
28086;SDS011;15392;48.912;8.380;2023-03-08T10:30:51;1.77;;;1.67;;
28086;SDS011;15392;48.912;8.380;2023-03-08T10:33:22;1.60;;;1.60;;
28086;SDS011;15392;48.912;8.380;2023-03-08T10:35:56;1.90;;;1.80;;
28086;SDS011;15392;48.912;8.380;2023-03-08T10:38:27;1.63;;;1.63;;
28086;SDS011;15392;48.912;8.380;2023-03-08T10:41:00;1.60;;;1.60;;
28086;SDS011;15392;48.912;8.380;2023-03-08T10:44:01;1.58;;;1.58;;
28086;SDS011;15392;48.912;8.380;2023-03-08T10:46:29;2.63;;;2.53;;
28086;SDS011;15392;48.912;8.380;2023-03-08T10:49:07;2.95;;;2.75;;
28086;SDS011;15392;48.912;8.380;2023-03-08T10:51:37;2.60;;;2.50;;
28086;SDS011;15392;48.912;8.380;2023-03-08T10:54:04;2.33;;;2.22;;
28086;SDS011;15392;48.912;8.380;2023-03-08T10:56:38;2.20;;;2.10;;
28086;SDS011;15392;48.912;8.380;2023-03-08T10:59:18;3.50;;;3.30;;
28086;SDS011;15392;48.912;8.380;2023-03-08T11:02:00;3.10;;;3.00;;
28086;SDS011;15392;48.912;8.380;2023-03-08T11:04:52;2.15;;;2.05;;
28086;SDS011;15392;48.912;8.380;2023-03-08T11:07:23;2.70;;;2.60;;
28086;SDS011;15392;48.912;8.380;2023-03-08T11:10:14;2.55;;;2.45;;
28086;SDS011;15392;48.912;8.380;2023-03-08T11:12:46;1.75;;;1.65;;
28086;SDS011;15392;48.912;8.380;2023-03-08T11:15:12;1.80;;;1.70;;
28086;SDS011;15392;48.912;8.380;2023-03-08T11:17:43;0.90;;;0.90;;
28086;SDS011;15392;48.912;8.380;2023-03-08T11:20:27;0.70;;;0.70;;
28086;SDS011;15392;48.912;8.380;2023-03-08T11:23:20;1.60;;;1.50;;
28086;SDS011;15392;48.912;8.380;2023-03-08T11:26:00;1.35;;;1.35;;
28086;SDS011;15392;48.912;8.380;2023-03-08T11:28:52;2.50;;;2.40;;
28086;SDS011;15392;48.912;8.380;2023-03-08T11:31:31;2.13;;;2.03;;
28086;SDS011;15392;48.912;8.380;2023-03-08T11:36:59;0.50;;;0.50;;
28086;SDS011;15392;48.912;8.380;2023-03-08T11:39:42;0.50;;;0.50;;
28086;SDS011;15392;48.912;8.380;2023-03-08T11:42:57;0.70;;;0.70;;
28086;SDS011;15392;48.912;8.380;2023-03-08T11:45:46;2.08;;;0.88;;
28086;SDS011;15392;48.912;8.380;2023-03-08T11:48:54;0.65;;;0.65;;
28086;SDS011;15392;48.912;8.380;2023-03-08T11:51:43;0.70;;;0.70;;
28086;SDS011;15392;48.912;8.380;2023-03-08T11:57:11;0.88;;;0.88;;
28086;SDS011;15392;48.912;8.380;2023-03-08T11:59:42;0.60;;;0.60;;
28086;SDS011;15392;48.912;8.380;2023-03-08T12:02:21;0.70;;;0.70;;
28086;SDS011;15392;48.912;8.380;2023-03-08T12:07:39;0.50;;;0.50;;
28086;SDS011;15392;48.912;8.380;2023-03-08T12:10:27;0.52;;;0.50;;
28086;SDS011;15392;48.912;8.380;2023-03-08T12:13:21;0.95;;;0.95;;
28086;SDS011;15392;48.912;8.380;2023-03-08T12:15:58;0.70;;;0.70;;
28086;SDS011;15392;48.912;8.380;2023-03-08T12:18:56;1.05;;;1.05;;
28086;SDS011;15392;48.912;8.380;2023-03-08T12:24:59;0.47;;;0.47;;
28086;SDS011;15392;48.912;8.380;2023-03-08T12:28:03;0.70;;;0.70;;
28086;SDS011;15392;48.912;8.380;2023-03-08T12:33:32;0.50;;;0.50;;
28086;SDS011;15392;48.912;8.380;2023-03-08T12:36:00;0.60;;;0.60;;
28086;SDS011;15392;48.912;8.380;2023-03-08T12:38:36;0.30;;;0.30;;
28086;SDS011;15392;48.912;8.380;2023-03-08T12:41:23;0.40;;;0.40;;
28086;SDS011;15392;48.912;8.380;2023-03-08T12:44:02;0.20;;;0.20;;
28086;SDS011;15392;48.912;8.380;2023-03-08T12:46:51;0.28;;;0.28;;
28086;SDS011;15392;48.912;8.380;2023-03-08T12:51:55;0.30;;;0.30;;
28086;SDS011;15392;48.912;8.380;2023-03-08T12:54:34;0.60;;;0.60;;
28086;SDS011;15392;48.912;8.380;2023-03-08T12:57:01;0.70;;;0.70;;
28086;SDS011;15392;48.912;8.380;2023-03-08T12:59:39;0.40;;;0.40;;
28086;SDS011;15392;48.912;8.380;2023-03-08T13:02:57;0.50;;;0.50;;
28086;SDS011;15392;48.912;8.380;2023-03-08T13:05:02;0.35;;;0.35;;
28086;SDS011;15392;48.912;8.380;2023-03-08T13:10:57;0.30;;;0.30;;
28086;SDS011;15392;48.912;8.380;2023-03-08T13:18:49;0.60;;;0.60;;
28086;SDS011;15392;48.912;8.380;2023-03-08T13:24:40;0.60;;;0.60;;
28086;SDS011;15392;48.912;8.380;2023-03-08T13:30:36;0.20;;;0.20;;
28086;SDS011;15392;48.912;8.380;2023-03-08T13:33:29;0.28;;;0.28;;
28086;SDS011;15392;48.912;8.380;2023-03-08T13:36:05;0.20;;;0.20;;
28086;SDS011;15392;48.912;8.380;2023-03-08T13:39:05;0.20;;;0.20;;
28086;SDS011;15392;48.912;8.380;2023-03-08T13:41:43;0.52;;;0.50;;
28086;SDS011;15392;48.912;8.380;2023-03-08T13:46:48;0.35;;;0.20;;
28086;SDS011;15392;48.912;8.380;2023-03-08T13:49:24;0.15;;;0.15;;
28086;SDS011;15392;48.912;8.380;2023-03-08T13:51:55;0.20;;;0.20;;
28086;SDS011;15392;48.912;8.380;2023-03-08T13:54:31;0.20;;;0.20;;
28086;SDS011;15392;48.912;8.380;2023-03-08T13:57:03;0.55;;;0.30;;
28086;SDS011;15392;48.912;8.380;2023-03-08T13:59:45;0.10;;;0.10;;
28086;SDS011;15392;48.912;8.380;2023-03-08T14:02:18;0.10;;;0.10;;
28086;SDS011;15392;48.912;8.380;2023-03-08T14:04:49;0.10;;;0.10;;
28086;SDS011;15392;48.912;8.380;2023-03-08T14:07:19;0.28;;;0.28;;
28086;SDS011;15392;48.912;8.380;2023-03-08T14:09:54;0.22;;;0.22;;
28086;SDS011;15392;48.912;8.380;2023-03-08T14:12:21;0.25;;;0.25;;
28086;SDS011;15392;48.912;8.380;2023-03-08T14:14:58;0.20;;;0.20;;
28086;SDS011;15392;48.912;8.380;2023-03-08T14:17:28;0.38;;;0.38;;
28086;SDS011;15392;48.912;8.380;2023-03-08T14:19:57;0.50;;;0.50;;
28086;SDS011;15392;48.912;8.380;2023-03-08T14:22:31;0.50;;;0.50;;
28086;SDS011;15392;48.912;8.380;2023-03-08T14:25:01;0.88;;;0.88;;
28086;SDS011;15392;48.912;8.380;2023-03-08T14:27:36;0.70;;;0.70;;
28086;SDS011;15392;48.912;8.380;2023-03-08T14:30:25;0.30;;;0.30;;
28086;SDS011;15392;48.912;8.380;2023-03-08T14:35:43;0.20;;;0.20;;
28086;SDS011;15392;48.912;8.380;2023-03-08T14:38:27;3.53;;;0.98;;
28086;SDS011;15392;48.912;8.380;2023-03-08T14:40:56;0.30;;;0.30;;
28086;SDS011;15392;48.912;8.380;2023-03-08T14:43:27;0.20;;;0.20;;
28086;SDS011;15392;48.912;8.380;2023-03-08T14:45:58;0.90;;;0.82;;
28086;SDS011;15392;48.912;8.380;2023-03-08T14:48:32;1.58;;;1.52;;
28086;SDS011;15392;48.912;8.380;2023-03-08T14:51:01;1.00;;;1.00;;
28086;SDS011;15392;48.912;8.380;2023-03-08T14:53:59;0.45;;;0.45;;
28086;SDS011;15392;48.912;8.380;2023-03-08T14:56:42;0.30;;;0.30;;
28086;SDS011;15392;48.912;8.380;2023-03-08T14:59:09;0.40;;;0.40;;
28086;SDS011;15392;48.912;8.380;2023-03-08T15:01:35;0.40;;;0.40;;
28086;SDS011;15392;48.912;8.380;2023-03-08T15:04:02;0.30;;;0.30;;
28086;SDS011;15392;48.912;8.380;2023-03-08T15:06:31;0.22;;;0.22;;
28086;SDS011;15392;48.912;8.380;2023-03-08T15:08:59;0.30;;;0.30;;
28086;SDS011;15392;48.912;8.380;2023-03-08T15:11:28;0.45;;;0.45;;
28086;SDS011;15392;48.912;8.380;2023-03-08T15:13:56;0.30;;;0.30;;
28086;SDS011;15392;48.912;8.380;2023-03-08T15:16:23;0.40;;;0.40;;
28086;SDS011;15392;48.912;8.380;2023-03-08T15:18:49;0.38;;;0.38;;
28086;SDS011;15392;48.912;8.380;2023-03-08T15:21:20;0.30;;;0.30;;
28086;SDS011;15392;48.912;8.380;2023-03-08T15:23:49;1.50;;;1.40;;
28086;SDS011;15392;48.912;8.380;2023-03-08T15:26:21;1.90;;;1.80;;
28086;SDS011;15392;48.912;8.380;2023-03-08T15:28:50;1.17;;;1.17;;
28086;SDS011;15392;48.912;8.380;2023-03-08T15:31:20;1.60;;;1.60;;
28086;SDS011;15392;48.912;8.380;2023-03-08T15:33:46;1.80;;;1.80;;
28086;SDS011;15392;48.912;8.380;2023-03-08T15:36:13;1.25;;;1.20;;
28086;SDS011;15392;48.912;8.380;2023-03-08T15:38:41;1.00;;;1.00;;
28086;SDS011;15392;48.912;8.380;2023-03-08T15:41:14;1.00;;;1.00;;
28086;SDS011;15392;48.912;8.380;2023-03-08T15:43:42;0.70;;;0.70;;
28086;SDS011;15392;48.912;8.380;2023-03-08T15:46:09;0.50;;;0.50;;
28086;SDS011;15392;48.912;8.380;2023-03-08T15:48:37;0.43;;;0.43;;
28086;SDS011;15392;48.912;8.380;2023-03-08T15:51:03;0.50;;;0.50;;
28086;SDS011;15392;48.912;8.380;2023-03-08T15:53:29;0.47;;;0.47;;
28086;SDS011;15392;48.912;8.380;2023-03-08T15:55:55;0.50;;;0.50;;
28086;SDS011;15392;48.912;8.380;2023-03-08T15:58:21;0.30;;;0.30;;
28086;SDS011;15392;48.912;8.380;2023-03-08T16:00:47;0.30;;;0.30;;
28086;SDS011;15392;48.912;8.380;2023-03-08T16:03:13;1.85;;;0.20;;
28086;SDS011;15392;48.912;8.380;2023-03-08T16:05:49;0.35;;;0.35;;
28086;SDS011;15392;48.912;8.380;2023-03-08T16:08:16;0.30;;;0.30;;
28086;SDS011;15392;48.912;8.380;2023-03-08T16:10:42;0.30;;;0.30;;
28086;SDS011;15392;48.912;8.380;2023-03-08T16:13:08;0.30;;;0.30;;